^^
Meteo Knjazevac Station Historical Data
Daily Summary for March 8, 2021 Units:  Metric    English   Both
Daily Weekly Monthly Yearly Custom
  High: Low: Average:
Temperature: 3.8 °C -3 °C 0.7 °C
Dew Point: 1.7 °C -3.3 °C -0.3 °C
Humidity: 99% 84% 94%
Wind Speed: 19.3km/h 0km/h 3.9km/h
Wind Gust: 27.4km/h - -
Wind- - West
Pressure: 1012.4 hPa 1009 hPa -
Precipitation: 0 mm    
Historical Graphs
 
 
Tabular Data for March 8, 2021
Time Temperature Dew Point Pressure Wind Wind Speed Wind Gust Humidity Rainfall Rate (Hourly) solar Conditions
00:00 0.8 °C 0.5 °C 1009 hPa WNW 1.6 km/h 9.7 km/h 98% 0 mm 0 W/m2
00:10 0.7 °C 0.4 °C 1009 hPa WNW 4.8 km/h 12.9 km/h 98% 0 mm 0 W/m2
00:20 0.7 °C 0.4 °C 1009.4 hPa WNW 1.6 km/h 12.9 km/h 98% 0 mm 0 W/m2
00:30 0.8 °C 0.5 °C 1009.4 hPa WNW 3.2 km/h 11.3 km/h 98% 0 mm 0 W/m2
00:40 0.7 °C 0.4 °C 1009.4 hPa NW 1.6 km/h 12.9 km/h 98% 0 mm 0 W/m2
00:50 0.7 °C 0.4 °C 1009.7 hPa NW 1.6 km/h 9.7 km/h 98% 0 mm 0 W/m2
01:00 0.7 °C 0.4 °C 1009.7 hPa North 3.2 km/h 12.9 km/h 98% 0 mm 0 W/m2
01:10 0.7 °C 0.4 °C 1009.7 hPa NNW 3.2 km/h 14.5 km/h 98% 0 mm 0 W/m2
01:20 0.7 °C 0.4 °C 1009.7 hPa NNW 1.6 km/h 11.3 km/h 98% 0 mm 0 W/m2
01:30 0.7 °C 0.4 °C 1010 hPa NW 3.2 km/h 11.3 km/h 98% 0 mm 0 W/m2
01:40 0.7 °C 0.4 °C 1010 hPa NNW 1.6 km/h 12.9 km/h 98% 0 mm 0 W/m2
01:50 0.7 °C 0.4 °C 1010 hPa NW 1.6 km/h 11.3 km/h 98% 0 mm 0 W/m2
02:00 0.7 °C 0.6 °C 1010 hPa NNW 3.2 km/h 12.9 km/h 99% 0 mm 0 W/m2
02:10 0.6 °C 0.4 °C 1010 hPa NW 1.6 km/h 11.3 km/h 99% 0 mm 0 W/m2
02:20 0.6 °C 0.4 °C 1010 hPa NW 3.2 km/h 12.9 km/h 99% 0 mm 0 W/m2
02:30 0.6 °C 0.4 °C 1010 hPa NW 1.6 km/h 11.3 km/h 99% 0 mm 0 W/m2
02:40 0.6 °C 0.4 °C 1010 hPa NNW 3.2 km/h 12.9 km/h 99% 0 mm 0 W/m2
02:50 0.6 °C 0.4 °C 1010 hPa NNW 1.6 km/h 12.9 km/h 99% 0 mm 0 W/m2
03:00 0.6 °C 0.4 °C 1010 hPa NNW 1.6 km/h 12.9 km/h 99% 0 mm 0 W/m2
03:10 0.6 °C 0.3 °C 1010 hPa NW 1.6 km/h 11.3 km/h 98% 0 mm 0 W/m2
03:20 0.6 °C 0.3 °C 1010 hPa NW 1.6 km/h 9.7 km/h 98% 0 mm 0 W/m2
03:30 0.6 °C 0.3 °C 1010 hPa NW 1.6 km/h 9.7 km/h 98% 0 mm 0 W/m2
03:40 0.6 °C 0.3 °C 1010 hPa NNW 4.8 km/h 12.9 km/h 98% 0 mm 0 W/m2
03:50 0.6 °C 0.3 °C 1010.4 hPa NW 4.8 km/h 11.3 km/h 98% 0 mm 0 W/m2
04:00 0.6 °C 0.3 °C 1010.4 hPa NNW 1.6 km/h 11.3 km/h 98% 0 mm 0 W/m2
04:10 0.6 °C 0.1 °C 1010.4 hPa WNW 3.2 km/h 11.3 km/h 96% 0 mm 0 W/m2
04:20 0.6 °C 0.1 °C 1010.4 hPa NW 3.2 km/h 14.5 km/h 96% 0 mm 0 W/m2
04:30 0.6 °C 0.1 °C 1010.4 hPa NW 3.2 km/h 12.9 km/h 96% 0 mm 0 W/m2
04:40 0.6 °C 0.1 °C 1010.4 hPa NNW 4.8 km/h 14.5 km/h 96% 0 mm 0 W/m2
04:50 0.6 °C 0.1 °C 1010.7 hPa WNW 4.8 km/h 19.3 km/h 96% 0 mm 0 W/m2
05:00 0.6 °C 0.1 °C 1010.7 hPa North 4.8 km/h 12.9 km/h 96% 0 mm 0 W/m2
05:10 0.7 °C 0 °C 1010.7 hPa NNW 8 km/h 16.1 km/h 95% 0 mm 0 W/m2
05:20 0.7 °C 0 °C 1011.1 hPa North 4.8 km/h 14.5 km/h 95% 0 mm 0 W/m2
05:30 0.7 °C 0 °C 1011.1 hPa NNW 3.2 km/h 14.5 km/h 95% 0 mm 0 W/m2
05:40 0.7 °C -0.2 °C 1011.1 hPa NW 3.2 km/h 12.9 km/h 94% 0 mm 0 W/m2
05:50 0.7 °C -0.2 °C 1011.4 hPa NNW 4.8 km/h 14.5 km/h 94% 0 mm 0 W/m2
06:00 0.7 °C -0.2 °C 1011.4 hPa NNW 3.2 km/h 12.9 km/h 94% 0 mm 0 W/m2
06:10 0.7 °C -0.2 °C 1011.4 hPa NW 3.2 km/h 14.5 km/h 94% 0 mm 0 W/m2
06:20 0.7 °C -0.2 °C 1011.4 hPa NW 3.2 km/h 14.5 km/h 94% 0 mm 0 W/m2
06:30 0.7 °C -0.2 °C 1011.7 hPa NNW 3.2 km/h 16.1 km/h 94% 0 mm 0 W/m2
06:40 0.7 °C -0.2 °C 1011.7 hPa NNW 4.8 km/h 14.5 km/h 94% 0 mm 0 W/m2
06:50 0.8 °C -0.2 °C 1011.7 hPa NNW 4.8 km/h 14.5 km/h 93% 0 mm 0 W/m2
07:00 0.8 °C -0.2 °C 1012.1 hPa NNW 4.8 km/h 12.9 km/h 93% 0 mm 1 W/m2
07:10 0.8 °C -0.2 °C 1012.1 hPa NNW 3.2 km/h 14.5 km/h 93% 0 mm 2 W/m2
07:20 0.8 °C -0.2 °C 1012.1 hPa NW 1.6 km/h 11.3 km/h 93% 0 mm 5 W/m2
07:30 0.8 °C -0.2 °C 1012.1 hPa NNW 3.2 km/h 14.5 km/h 93% 0 mm 7 W/m2
07:40 0.9 °C -0.1 °C 1012.1 hPa NW 1.6 km/h 11.3 km/h 93% 0 mm 8 W/m2
07:50 0.9 °C 0.1 °C 1012.1 hPa Calm   8 km/h 94% 0 mm 9 W/m2
08:00 0.9 °C 0 °C 1012.1 hPa Calm   4.8 km/h 94% 0 mm 6 W/m2
08:10 0.8 °C -0.1 °C 1012.1 hPa Calm   8 km/h 94% 0 mm 15 W/m2
08:20 0.8 °C -0.1 °C 1012.1 hPa NNW 1.6 km/h 4.8 km/h 94% 0 mm 19 W/m2
08:30 0.9 °C 0.1 °C 1012.1 hPa Calm   6.4 km/h 94% 0 mm 24 W/m2
08:40 0.9 °C 0.2 °C 1012.1 hPa Calm   4.8 km/h 95% 0 mm 43 W/m2
08:50 0.9 °C 0.2 °C 1012.1 hPa Calm   6.4 km/h 95% 0 mm 64 W/m2
09:00 1 °C 0.3 °C 1012.1 hPa NNW 1.6 km/h 8 km/h 95% 0 mm 52 W/m2
09:10 1.1 °C 0.4 °C 1012.4 hPa NW 1.6 km/h 8 km/h 95% 0 mm 78 W/m2
09:20 1.1 °C 0.4 °C 1012.1 hPa WSW 1.6 km/h 11.3 km/h 95% 0 mm 95 W/m2
09:30 1.2 °C 0.3 °C 1012.1 hPa WNW 3.2 km/h 9.7 km/h 94% 0 mm 125 W/m2
09:40 1.4 °C 0.6 °C 1012.1 hPa WNW 1.6 km/h 9.7 km/h 94% 0 mm 107 W/m2
09:50 1.4 °C 0.6 °C 1012.1 hPa WNW 3.2 km/h 16.1 km/h 94% 0 mm 114 W/m2
10:00 1.5 °C 0.5 °C 1012.1 hPa West 3.2 km/h 16.1 km/h 93% 0 mm 105 W/m2
10:10 1.5 °C 0.5 °C 1012.1 hPa WNW 1.6 km/h 11.3 km/h 93% 0 mm 142 W/m2
10:20 1.6 °C 0.3 °C 1012.1 hPa WNW 3.2 km/h 14.5 km/h 91% 0 mm 121 W/m2
10:30 1.7 °C 0.7 °C 1011.7 hPa WNW 1.6 km/h 11.3 km/h 93% 0 mm 128 W/m2
10:40 1.8 °C 0.5 °C 1011.7 hPa WNW 1.6 km/h 9.7 km/h 91% 0 mm 152 W/m2
10:50 1.9 °C 0.6 °C 1011.7 hPa WNW 1.6 km/h 8 km/h 91% 0 mm 166 W/m2
11:00 1.9 °C 0.4 °C 1011.7 hPa West 1.6 km/h 12.9 km/h 90% 0 mm 186 W/m2
11:10 2 °C 0.6 °C 1011.7 hPa SW 14.5 km/h 24.1 km/h 90% 0 mm 195 W/m2
11:20 2.1 °C 0.6 °C 1011.4 hPa SW 11.3 km/h 22.5 km/h 90% 0 mm 167 W/m2
11:30 2.1 °C 0.5 °C 1011.7 hPa SW 14.5 km/h 24.1 km/h 89% 0 mm 104 W/m2
11:40 2 °C 0.4 °C 1011.7 hPa SW 14.5 km/h 27.4 km/h 89% 0 mm 85 W/m2
11:50 1.9 °C 0.1 °C 1011.7 hPa SW 19.3 km/h 27.4 km/h 88% 0 mm 95 W/m2
12:00 1.9 °C 0.3 °C 1011.7 hPa SW 12.9 km/h 24.1 km/h 89% 0 mm 102 W/m2
12:10 2 °C 0.2 °C 1011.7 hPa SW 16.1 km/h 24.1 km/h 88% 0 mm 100 W/m2
12:20 2.1 °C 0.4 °C 1011.7 hPa SW 11.3 km/h 25.7 km/h 89% 0 mm 133 W/m2
12:30 2.2 °C 0.6 °C 1011.7 hPa SW 11.3 km/h 24.1 km/h 89% 0 mm 151 W/m2
12:40 2.3 °C 0.5 °C 1011.7 hPa SW 11.3 km/h 25.7 km/h 88% 0 mm 181 W/m2
12:50 2.5 °C 0.7 °C 1011.4 hPa SW 11.3 km/h 20.9 km/h 88% 0 mm 172 W/m2
13:00 2.7 °C 0.9 °C 1011.4 hPa SW 11.3 km/h 19.3 km/h 88% 0 mm 271 W/m2
13:10 3 °C 1.2 °C 1011.4 hPa SSW 12.9 km/h 20.9 km/h 88% 0 mm 257 W/m2
13:20 3.4 °C 1.6 °C 1011.4 hPa SSW 8 km/h 20.9 km/h 88% 0 mm 243 W/m2
13:30 3.6 °C 1.5 °C 1011.4 hPa SSW 8 km/h 20.9 km/h 86% 0 mm 227 W/m2
13:40 3.8 °C 1.7 °C 1011.4 hPa SSW 4.8 km/h 12.9 km/h 86% 0 mm 210 W/m2
13:50 3.8 °C 1.5 °C 1011.4 hPa SSW 9.7 km/h 14.5 km/h 85% 0 mm 188 W/m2
14:00 3.8 °C 1.5 °C 1011.1 hPa SSE 4.8 km/h 14.5 km/h 85% 0 mm 175 W/m2
14:10 3.7 °C 1.6 °C 1011.4 hPa SE 8 km/h 16.1 km/h 86% 0 mm 156 W/m2
14:20 3.8 °C 1.7 °C 1011.4 hPa SSE 9.7 km/h 16.1 km/h 86% 0 mm 137 W/m2
14:30 3.6 °C 1.3 °C 1011.4 hPa South 8 km/h 16.1 km/h 85% 0 mm 118 W/m2
14:40 3.8 °C 1.5 °C 1011.7 hPa SSW 8 km/h 12.9 km/h 85% 0 mm 99 W/m2
14:50 3.8 °C 1.3 °C 1011.7 hPa SSW 4.8 km/h 14.5 km/h 84% 0 mm 80 W/m2
15:00 3.7 °C 1.2 °C 1011.7 hPa SSW 8 km/h 14.5 km/h 84% 0 mm 61 W/m2
15:10 3.6 °C 1.2 °C 1011.7 hPa SSW 4.8 km/h 9.7 km/h 84% 0 mm 43 W/m2
15:20 3.5 °C 1.1 °C 1011.7 hPa SSW 4.8 km/h 9.7 km/h 84% 0 mm 27 W/m2
15:30 3.4 °C 1.1 °C 1011.7 hPa SSW 3.2 km/h 8 km/h 85% 0 mm 12 W/m2
15:40 3.1 °C 0.8 °C 1011.7 hPa South 3.2 km/h 8 km/h 85% 0 mm 16 W/m2
15:50 2.7 °C 0.6 °C 1011.7 hPa South 1.6 km/h 8 km/h 86% 0 mm 7 W/m2
16:00 2.3 °C 0.5 °C 1011.7 hPa SW 3.2 km/h 9.7 km/h 88% 0 mm 0 W/m2
16:10 2 °C 0.4 °C 1011.7 hPa South 3.2 km/h 8 km/h 89% 0 mm 0 W/m2
16:20 1.7 °C 0.1 °C 1011.7 hPa WSW 1.6 km/h 6.4 km/h 89% 0 mm 0 W/m2
16:30 1.4 °C -0.1 °C 1011.7 hPa SW 3.2 km/h 8 km/h 90% 0 mm 0 W/m2
16:40 1.3 °C -0.2 °C 1011.4 hPa WSW 4.8 km/h 11.3 km/h 90% 0 mm 0 W/m2
16:50 1.1 °C -0.3 °C 1011.7 hPa SW 9.7 km/h 12.9 km/h 90% 0 mm 0 W/m2
17:00 1.1 °C -0.3 °C 1011.7 hPa SW 3.2 km/h 16.1 km/h 90% 0 mm 0 W/m2
17:10 0.9 °C -0.6 °C 1011.7 hPa SW 1.6 km/h 4.8 km/h 90% 0 mm 0 W/m2
17:20 0.8 °C -0.7 °C 1011.7 hPa SSW 1.6 km/h 4.8 km/h 90% 0 mm 0 W/m2
17:30 0.7 °C -0.6 °C 1011.7 hPa SSW 3.2 km/h 9.7 km/h 91% 0 mm 0 W/m2
17:40 0.6 °C -0.7 °C 1011.7 hPa SSW 3.2 km/h 6.4 km/h 91% 0 mm 0 W/m2
17:50 0.3 °C -1 °C 1011.7 hPa Calm   3.2 km/h 91% 0 mm 0 W/m2
18:00 0.2 °C -0.8 °C 1011.7 hPa Calm   3.2 km/h 93% 0 mm 0 W/m2
18:10 0 °C -1 °C 1011.7 hPa Calm   3.2 km/h 93% 0 mm 0 W/m2
18:20 -0.1 °C -0.9 °C 1011.7 hPa WNW 1.6 km/h 3.2 km/h 94% 0 mm 0 W/m2
18:30 -0.3 °C -1.2 °C 1011.7 hPa Calm   4.8 km/h 94% 0 mm 0 W/m2
18:40 -0.2 °C -1.1 °C 1011.7 hPa Calm   8 km/h 94% 0 mm 0 W/m2
18:50 -0.3 °C -1.2 °C 1012.1 hPa Calm   4.8 km/h 94% 0 mm 0 W/m2
19:00 -0.6 °C -1.4 °C 1012.1 hPa Calm   3.2 km/h 94% 0 mm 0 W/m2
19:10 -0.8 °C -1.5 °C 1012.1 hPa Calm   1.6 km/h 95% 0 mm 0 W/m2
19:20 -0.9 °C -1.6 °C 1011.7 hPa Calm   3.2 km/h 95% 0 mm 0 W/m2
19:30 -1 °C -1.7 °C 1011.7 hPa WNW 1.6 km/h 3.2 km/h 95% 0 mm 0 W/m2
19:40 -1.1 °C -1.7 °C 1011.7 hPa WNW 1.6 km/h 3.2 km/h 96% 0 mm 0 W/m2
19:50 -1.2 °C -1.8 °C 1011.7 hPa Calm   3.2 km/h 96% 0 mm 0 W/m2
20:00 -1.4 °C -1.9 °C 1011.7 hPa West 3.2 km/h 9.7 km/h 96% 0 mm 0 W/m2
20:10 -1.1 °C -1.7 °C 1011.7 hPa SSW 3.2 km/h 12.9 km/h 96% 0 mm 0 W/m2
20:20 -1.2 °C -1.8 °C 1011.4 hPa WNW 1.6 km/h 4.8 km/h 96% 0 mm 0 W/m2
20:30 -1.4 °C -1.9 °C 1011.7 hPa West 3.2 km/h 8 km/h 96% 0 mm 0 W/m2
20:40 -1.7 °C -2.3 °C 1011.7 hPa WNW 3.2 km/h 8 km/h 96% 0 mm 0 W/m2
20:50 -1.8 °C -2.1 °C 1011.7 hPa WNW 3.2 km/h 8 km/h 98% 0 mm 0 W/m2
21:00 -1.8 °C -2.1 °C 1011.7 hPa WNW 1.6 km/h 8 km/h 98% 0 mm 0 W/m2
21:10 -1.9 °C -2.2 °C 1011.7 hPa NW 1.6 km/h 6.4 km/h 98% 0 mm 0 W/m2
21:20 -2.2 °C -2.8 °C 1011.7 hPa WNW 3.2 km/h 4.8 km/h 96% 0 mm 0 W/m2
21:30 -2.3 °C -2.8 °C 1011.7 hPa NW 1.6 km/h 4.8 km/h 96% 0 mm 0 W/m2
21:40 -2.5 °C -3.1 °C 1011.7 hPa West 3.2 km/h 8 km/h 96% 0 mm 0 W/m2
21:50 -2.7 °C -3.2 °C 1011.7 hPa West 4.8 km/h 6.4 km/h 96% 0 mm 0 W/m2
22:00 -2.8 °C -3.1 °C 1011.7 hPa West 1.6 km/h 8 km/h 98% 0 mm 0 W/m2
22:10 -2.8 °C -3.1 °C 1011.7 hPa WNW 3.2 km/h 4.8 km/h 98% 0 mm 0 W/m2
22:20 -2.9 °C -3.2 °C 1011.7 hPa WNW 3.2 km/h 6.4 km/h 98% 0 mm 0 W/m2
22:30 -2.8 °C -2.9 °C 1011.4 hPa NW 3.2 km/h 8 km/h 99% 0 mm 0 W/m2
22:40 -2.7 °C -2.8 °C 1011.4 hPa WNW 3.2 km/h 6.4 km/h 99% 0 mm 0 W/m2
22:50 -2.8 °C -2.9 °C 1011.4 hPa WNW 3.2 km/h 8 km/h 99% 0 mm 0 W/m2
23:00 -2.9 °C -3.1 °C 1011.4 hPa NW 1.6 km/h 4.8 km/h 99% 0 mm 0 W/m2
23:10 -3 °C -3.3 °C 1011.7 hPa NW 3.2 km/h 4.8 km/h 98% 0 mm 0 W/m2
23:20 -3 °C -3.3 °C 1011.4 hPa NNW 3.2 km/h 6.4 km/h 98% 0 mm 0 W/m2
23:30 -3 °C -3.1 °C 1011.4 hPa NW 3.2 km/h 6.4 km/h 99% 0 mm 0 W/m2
23:40 -2.8 °C -2.9 °C 1011.4 hPa WNW 3.2 km/h 6.4 km/h 99% 0 mm 0 W/m2
23:50 -2.9 °C -3.1 °C 1011.4 hPa Calm   4.8 km/h 99% 0 mm 0 W/m2
Knjazevac, Serbia
Compliments of Weather Underground - 2 mb